createdAt,value
2022-08-17T00:01:51.309Z,8.70
2022-08-17T00:04:20.712Z,8.40
2022-08-17T00:06:48.638Z,8.10
2022-08-17T00:09:18.667Z,8.98
2022-08-17T00:12:42.249Z,8.15
2022-08-17T00:14:35.151Z,8.52
2022-08-17T00:17:04.795Z,8.20
2022-08-17T00:19:33.071Z,7.90
2022-08-17T00:22:31.361Z,8.80
2022-08-17T00:24:50.866Z,9.00
2022-08-17T00:27:18.659Z,8.52
2022-08-17T00:29:46.181Z,8.25
2022-08-17T00:33:22.799Z,8.73
2022-08-17T00:35:01.459Z,8.18
2022-08-17T00:37:28.781Z,8.43
2022-08-17T00:39:56.184Z,8.30
2022-08-17T00:42:26.421Z,7.80
2022-08-17T00:44:57.757Z,8.05
2022-08-17T00:47:25.144Z,7.70
2022-08-17T00:49:52.586Z,7.97
2022-08-17T00:52:23.103Z,7.57
2022-08-17T00:54:52.656Z,8.35
2022-08-17T00:57:22.385Z,7.78
2022-08-17T01:00:02.354Z,7.70
2022-08-17T01:02:41.179Z,8.00
2022-08-17T01:05:13.334Z,8.30
2022-08-17T01:07:40.989Z,7.72
2022-08-17T01:10:58.228Z,8.18
2022-08-17T01:12:58.858Z,7.80
2022-08-17T01:15:26.248Z,7.70
2022-08-17T01:17:53.549Z,7.78
2022-08-17T01:20:20.893Z,8.45
2022-08-17T01:22:48.312Z,7.68
2022-08-17T01:25:15.780Z,8.20
2022-08-17T01:27:43.681Z,7.82
2022-08-17T01:30:58.895Z,8.52
2022-08-17T01:33:00.701Z,8.35
2022-08-17T01:35:28.111Z,7.68
2022-08-17T01:37:55.386Z,8.10
2022-08-17T01:40:26.479Z,7.55
2022-08-17T01:43:02.283Z,8.10
2022-08-17T01:45:33.945Z,7.90
2022-08-17T01:48:02.015Z,8.30
2022-08-17T01:50:35.229Z,7.78
2022-08-17T01:53:07.511Z,8.18
2022-08-17T01:55:39.150Z,7.95
2022-08-17T01:58:09.840Z,7.95
2022-08-17T02:00:47.828Z,8.40
2022-08-17T02:03:26.531Z,8.10
2022-08-17T02:05:54.442Z,8.38
2022-08-17T02:08:38.857Z,7.97
2022-08-17T02:11:11.966Z,7.80
2022-08-17T02:13:39.501Z,7.60
2022-08-17T02:16:07.032Z,8.57
2022-08-17T02:18:34.608Z,8.30
2022-08-17T02:21:02.210Z,7.80
2022-08-17T02:23:31.078Z,8.10
2022-08-17T02:26:00.159Z,7.75
2022-08-17T02:28:28.583Z,7.55
2022-08-17T02:31:01.816Z,8.18
2022-08-17T02:33:42.756Z,8.25
2022-08-17T02:36:12.269Z,7.40
2022-08-17T02:38:40.245Z,7.40
2022-08-17T02:41:07.753Z,8.25
2022-08-17T02:43:35.576Z,8.30
2022-08-17T02:46:02.977Z,8.02
2022-08-17T02:48:32.028Z,8.00
2022-08-17T02:51:00.389Z,7.28
2022-08-17T02:53:28.055Z,8.07
2022-08-17T02:56:02.982Z,7.82
2022-08-17T02:58:35.067Z,7.07
2022-08-17T03:01:04.923Z,7.70
2022-08-17T03:03:32.704Z,8.00
2022-08-17T03:05:59.993Z,7.50
2022-08-17T03:08:27.337Z,7.47
2022-08-17T03:10:54.650Z,8.60
2022-08-17T03:13:22.006Z,7.60
2022-08-17T03:15:49.711Z,7.28
2022-08-17T03:18:25.027Z,7.18
2022-08-17T03:20:58.741Z,7.45
2022-08-17T03:23:27.266Z,7.00
2022-08-17T03:25:55.202Z,7.22
2022-08-17T03:28:23.717Z,7.60
2022-08-17T03:30:51.460Z,7.00
2022-08-17T03:33:19.147Z,7.13
2022-08-17T03:35:46.729Z,7.50
2022-08-17T03:38:15.047Z,7.78
2022-08-17T03:40:57.313Z,7.57
2022-08-17T03:43:27.393Z,7.55
2022-08-17T03:46:33.993Z,7.50
2022-08-17T03:49:19.452Z,7.80
2022-08-17T03:52:05.628Z,7.68
2022-08-17T03:54:51.821Z,8.32
2022-08-17T03:57:19.390Z,7.63
2022-08-17T03:59:46.750Z,7.43
2022-08-17T04:02:18.253Z,7.63
2022-08-17T04:04:45.746Z,8.25
2022-08-17T04:07:13.136Z,7.97
2022-08-17T04:09:40.439Z,7.57
2022-08-17T04:12:07.815Z,7.50
2022-08-17T04:14:51.525Z,8.20
2022-08-17T04:17:19.968Z,7.65
2022-08-17T04:19:47.501Z,7.13
2022-08-17T04:22:29.776Z,7.68
2022-08-17T04:25:03.046Z,7.97
2022-08-17T04:27:30.334Z,7.20
2022-08-17T04:29:58.586Z,7.50
2022-08-17T04:33:00.608Z,8.57
2022-08-17T04:35:13.381Z,8.45
2022-08-17T04:37:40.691Z,7.90
2022-08-17T04:40:27.471Z,7.75
2022-08-17T04:43:13.374Z,7.97
2022-08-17T04:45:54.995Z,7.63
2022-08-17T04:48:24.033Z,7.80
2022-08-17T04:51:02.667Z,7.57
2022-08-17T04:53:30.026Z,7.57
2022-08-17T04:55:59.104Z,7.13
2022-08-17T04:58:26.495Z,7.82
2022-08-17T05:00:53.990Z,7.85
2022-08-17T05:03:21.307Z,7.03
2022-08-17T05:05:49.911Z,7.70
2022-08-17T05:08:19.021Z,7.18
2022-08-17T05:10:46.896Z,7.30
2022-08-17T05:13:15.853Z,7.20
2022-08-17T05:15:44.721Z,7.30
2022-08-17T05:18:12.929Z,7.80
2022-08-17T05:20:40.697Z,7.53
2022-08-17T05:23:09.608Z,7.25
2022-08-17T05:25:42.753Z,7.07
2022-08-17T05:28:15.996Z,7.63
2022-08-17T05:30:43.803Z,7.68
2022-08-17T05:33:16.638Z,7.20
2022-08-17T05:35:47.090Z,8.15
2022-08-17T05:38:15.207Z,7.60
2022-08-17T05:40:42.614Z,8.55
2022-08-17T05:43:11.680Z,9.07
2022-08-17T05:45:55.319Z,28.48
2022-08-17T05:48:35.522Z,8.98
2022-08-17T05:51:16.450Z,8.50
2022-08-17T05:53:58.197Z,8.88
2022-08-17T05:56:42.302Z,8.32
2022-08-17T05:59:16.075Z,8.00
2022-08-17T06:01:48.514Z,8.38
2022-08-17T06:04:21.556Z,8.57
2022-08-17T06:06:56.744Z,8.50
2022-08-17T06:09:33.000Z,8.40
2022-08-17T06:12:20.046Z,8.15
2022-08-17T06:14:58.985Z,8.45
2022-08-17T06:17:27.226Z,8.38
2022-08-17T06:19:56.966Z,9.07
2022-08-17T06:22:27.397Z,8.27
2022-08-17T06:25:03.654Z,8.82
2022-08-17T06:27:39.661Z,8.02
2022-08-17T06:30:14.929Z,8.80
2022-08-17T06:32:46.537Z,9.20
2022-08-17T06:35:16.047Z,8.88
2022-08-17T06:38:02.113Z,8.82
2022-08-17T06:40:32.401Z,8.85
2022-08-17T06:43:05.970Z,8.98
2022-08-17T06:45:49.308Z,9.18
2022-08-17T06:48:24.848Z,9.32
2022-08-17T06:50:54.586Z,9.85
2022-08-17T06:53:25.435Z,9.00
2022-08-17T06:55:58.208Z,8.52
2022-08-17T06:58:29.744Z,8.80
2022-08-17T07:00:59.672Z,8.85
2022-08-17T07:03:30.060Z,9.20
2022-08-17T07:06:04.092Z,8.88
2022-08-17T07:08:49.928Z,8.63
2022-08-17T07:11:27.364Z,8.43
2022-08-17T07:13:54.742Z,8.48
2022-08-17T07:16:34.415Z,8.95
2022-08-17T07:19:01.767Z,9.27
2022-08-17T07:21:39.573Z,8.73
2022-08-17T07:24:06.939Z,9.05
2022-08-17T07:26:34.237Z,9.07
2022-08-17T07:29:02.471Z,8.57
2022-08-17T07:31:31.650Z,8.95
2022-08-17T07:34:04.222Z,8.23
2022-08-17T07:36:33.949Z,8.50
2022-08-17T07:39:02.841Z,8.55
2022-08-17T07:41:53.345Z,8.13
2022-08-17T07:44:19.727Z,7.90
2022-08-17T07:47:12.703Z,8.05
2022-08-17T07:49:41.586Z,7.97
2022-08-17T07:52:47.446Z,8.13
2022-08-17T07:55:24.101Z,8.10
2022-08-17T07:57:57.386Z,8.20
2022-08-17T08:00:29.160Z,8.50
2022-08-17T08:03:15.250Z,7.68
2022-08-17T08:05:53.517Z,7.65
2022-08-17T08:08:21.228Z,8.10
2022-08-17T08:10:57.726Z,8.30
2022-08-17T08:13:26.427Z,7.50
2022-08-17T08:15:55.446Z,7.78
2022-08-17T08:18:54.169Z,8.00
2022-08-17T08:21:31.613Z,7.95
2022-08-17T08:24:14.093Z,7.93
2022-08-17T08:26:55.499Z,8.10
2022-08-17T08:29:41.077Z,7.93
2022-08-17T08:32:20.662Z,8.60
2022-08-17T08:35:02.098Z,8.27
2022-08-17T08:37:42.009Z,7.72
2022-08-17T08:40:26.875Z,7.97
2022-08-17T08:42:57.133Z,7.53
2022-08-17T08:45:27.105Z,7.53
2022-08-17T08:47:54.608Z,8.13
2022-08-17T08:50:40.499Z,7.43
2022-08-17T08:53:14.374Z,7.45
2022-08-17T08:55:52.877Z,7.10
2022-08-17T08:58:31.974Z,7.60
2022-08-17T09:01:17.090Z,6.70
2022-08-17T09:04:20.026Z,6.47
2022-08-17T09:07:00.452Z,6.78
2022-08-17T09:09:46.503Z,6.50
2022-08-17T09:12:19.915Z,5.88
2022-08-17T09:14:50.448Z,5.72
2022-08-17T09:17:44.200Z,5.38
2022-08-17T09:20:11.817Z,6.22
2022-08-17T09:22:59.063Z,5.85
2022-08-17T09:25:29.669Z,7.47
2022-08-17T09:28:00.681Z,5.40
2022-08-17T09:30:30.026Z,6.20
2022-08-17T09:32:59.568Z,6.60
2022-08-17T09:35:32.940Z,6.27
2022-08-17T09:38:04.561Z,5.97
2022-08-17T09:40:38.580Z,6.13
2022-08-17T09:43:13.064Z,6.00
2022-08-17T09:45:40.364Z,6.55
2022-08-17T09:48:13.794Z,6.18
2022-08-17T09:51:05.378Z,6.85
2022-08-17T09:53:31.762Z,5.35
2022-08-17T09:56:07.451Z,5.05
2022-08-17T09:58:55.550Z,5.28
2022-08-17T10:01:22.869Z,5.38
2022-08-17T10:04:10.881Z,5.22
2022-08-17T10:06:47.778Z,5.10
2022-08-17T10:09:27.495Z,5.28
2022-08-17T10:12:20.170Z,4.80
2022-08-17T10:14:55.189Z,4.45
2022-08-17T10:17:30.747Z,4.60
2022-08-17T10:20:01.108Z,4.80
2022-08-17T10:22:54.978Z,4.63
2022-08-17T10:25:56.719Z,4.35
2022-08-17T10:28:29.419Z,5.53
2022-08-17T10:31:23.187Z,4.55
2022-08-17T10:33:53.469Z,4.95
2022-08-17T10:36:27.321Z,4.85
2022-08-17T10:39:19.870Z,4.57
2022-08-17T10:41:50.576Z,4.53
2022-08-17T10:47:05.992Z,4.88
2022-08-17T10:49:34.560Z,5.13
2022-08-17T10:52:03.619Z,5.50
2022-08-17T10:54:49.375Z,5.20
2022-08-17T10:57:32.147Z,5.15
2022-08-17T11:00:00.013Z,4.90
2022-08-17T11:02:29.251Z,4.60
2022-08-17T11:05:06.400Z,4.63
2022-08-17T11:07:45.649Z,4.35
2022-08-17T11:10:19.024Z,4.45
2022-08-17T11:13:02.769Z,4.43
2022-08-17T11:15:41.445Z,4.85
2022-08-17T11:18:08.783Z,4.70
2022-08-17T11:20:39.441Z,4.45
2022-08-17T11:25:43.951Z,5.07
2022-08-17T11:28:19.414Z,5.00
2022-08-17T11:30:54.662Z,4.90
2022-08-17T11:33:42.199Z,4.65
2022-08-17T11:36:29.477Z,4.60
2022-08-17T11:39:03.301Z,4.93
2022-08-17T11:41:30.550Z,4.93
2022-08-17T11:44:10.693Z,4.53
2022-08-17T11:47:31.859Z,4.72
2022-08-17T11:50:17.797Z,4.70
2022-08-17T11:52:47.135Z,5.15
2022-08-17T11:55:35.839Z,4.55
2022-08-17T11:58:24.603Z,4.60
2022-08-17T12:01:01.997Z,4.05
2022-08-17T12:03:32.303Z,4.40
2022-08-17T12:06:07.720Z,4.35
2022-08-17T12:08:41.827Z,3.70
2022-08-17T12:11:19.022Z,4.72
2022-08-17T12:14:07.338Z,4.38
2022-08-17T12:16:34.877Z,4.07
2022-08-17T12:19:03.644Z,3.60
2022-08-17T12:21:38.715Z,3.67
2022-08-17T12:24:21.297Z,3.72
2022-08-17T12:26:52.979Z,4.10
2022-08-17T12:29:35.676Z,3.72
2022-08-17T12:32:07.178Z,4.30
2022-08-17T12:34:43.014Z,3.78
2022-08-17T12:37:19.461Z,4.07
2022-08-17T12:39:55.147Z,3.88
2022-08-17T12:42:27.412Z,3.70
2022-08-17T12:44:54.778Z,4.25
2022-08-17T12:47:23.128Z,3.83
2022-08-17T12:49:55.385Z,4.05
2022-08-17T12:52:27.644Z,4.07
2022-08-17T12:54:54.902Z,3.95
2022-08-17T12:57:33.838Z,4.00
2022-08-17T13:00:02.943Z,3.92
2022-08-17T13:02:40.939Z,4.70
2022-08-17T13:05:09.381Z,3.92
2022-08-17T13:07:42.519Z,4.00
2022-08-17T13:10:16.607Z,3.92
2022-08-17T13:12:43.881Z,4.63
2022-08-17T13:15:20.425Z,4.28
2022-08-17T13:17:56.656Z,3.90
2022-08-17T13:20:23.986Z,3.80
2022-08-17T13:22:58.622Z,4.60
2022-08-17T13:25:27.363Z,3.85
2022-08-17T13:27:55.431Z,4.20
2022-08-17T13:30:28.034Z,4.30
2022-08-17T13:32:56.691Z,4.28
2022-08-17T13:35:43.690Z,4.20
2022-08-17T13:38:15.174Z,4.35
2022-08-17T13:40:53.169Z,3.85
2022-08-17T13:43:40.602Z,4.22
2022-08-17T13:46:09.210Z,4.25
2022-08-17T13:48:36.673Z,4.15
2022-08-17T13:51:25.644Z,4.45
2022-08-17T13:53:54.863Z,4.20
2022-08-17T13:56:37.047Z,4.10
2022-08-17T13:59:06.789Z,3.95
2022-08-17T14:01:39.564Z,3.50
2022-08-17T14:04:17.719Z,4.03
2022-08-17T14:06:57.110Z,3.65
2022-08-17T14:09:26.148Z,4.25
2022-08-17T14:11:54.668Z,4.00
2022-08-17T14:14:23.380Z,3.42
2022-08-17T14:16:51.424Z,3.63
2022-08-17T14:19:18.930Z,3.70
2022-08-17T14:21:47.191Z,3.42
2022-08-17T14:24:22.739Z,3.50
2022-08-17T14:26:52.108Z,3.40
2022-08-17T14:29:20.345Z,3.03
2022-08-17T14:31:48.514Z,3.42
2022-08-17T14:34:20.865Z,3.65
2022-08-17T14:36:48.866Z,3.05
2022-08-17T14:39:16.834Z,3.30
2022-08-17T14:41:44.442Z,3.50
2022-08-17T14:44:13.063Z,3.42
2022-08-17T14:46:41.647Z,3.58
2022-08-17T14:49:11.138Z,3.33
2022-08-17T14:51:39.714Z,3.40
2022-08-17T14:54:11.630Z,3.67
2022-08-17T14:57:22.230Z,3.42
2022-08-17T14:59:46.247Z,3.13
2022-08-17T15:02:13.924Z,3.33
2022-08-17T15:04:45.491Z,3.10
2022-08-17T15:07:13.108Z,3.10
2022-08-17T15:09:40.414Z,3.80
2022-08-17T15:12:07.880Z,3.38
2022-08-17T15:14:36.115Z,3.45
2022-08-17T15:17:04.282Z,3.22
2022-08-17T15:19:31.541Z,3.10
2022-08-17T15:21:58.832Z,3.03
2022-08-17T15:24:26.127Z,3.08
2022-08-17T15:26:53.438Z,2.80
2022-08-17T15:29:20.709Z,3.47
2022-08-17T15:31:48.024Z,3.28
2022-08-17T15:34:17.345Z,3.05
2022-08-17T15:36:49.273Z,3.35
2022-08-17T15:39:19.601Z,2.90
2022-08-17T15:41:47.446Z,2.83
2022-08-17T15:44:32.543Z,2.70
2022-08-17T15:47:02.601Z,2.92
2022-08-17T15:49:29.969Z,2.90
2022-08-17T15:51:57.281Z,2.95
2022-08-17T15:54:24.558Z,2.95
2022-08-17T15:57:01.882Z,3.03
2022-08-17T15:59:31.046Z,3.40
2022-08-17T16:02:59.327Z,3.38
2022-08-17T16:04:47.118Z,3.10
2022-08-17T16:07:17.453Z,3.55
2022-08-17T16:09:45.626Z,3.08
2022-08-17T16:12:14.403Z,3.20
2022-08-17T16:14:41.724Z,3.13
2022-08-17T16:17:38.899Z,3.22
2022-08-17T16:19:57.273Z,2.90
2022-08-17T16:22:35.853Z,3.30
2022-08-17T16:25:05.287Z,3.03
2022-08-17T16:27:32.550Z,3.20
2022-08-17T16:30:00.841Z,3.17
2022-08-17T16:32:31.501Z,3.38
2022-08-17T16:35:07.671Z,3.40
2022-08-17T16:37:36.573Z,3.40
2022-08-17T16:40:08.238Z,3.25
2022-08-17T16:42:37.117Z,3.42
2022-08-17T16:45:18.586Z,3.50
2022-08-17T16:47:46.000Z,3.42
2022-08-17T16:50:15.386Z,2.75
2022-08-17T16:52:43.222Z,3.20
2022-08-17T16:55:13.407Z,3.38
2022-08-17T16:57:47.436Z,3.55
2022-08-17T17:00:18.143Z,3.30
2022-08-17T17:02:47.755Z,3.40
2022-08-17T17:05:22.334Z,3.17
2022-08-17T17:08:03.432Z,3.25
2022-08-17T17:10:40.349Z,3.20
2022-08-17T17:13:36.902Z,3.40
2022-08-17T17:16:07.395Z,3.25
2022-08-17T17:18:40.865Z,3.33
2022-08-17T17:21:12.800Z,3.20
2022-08-17T17:23:46.115Z,3.67
2022-08-17T17:26:24.691Z,3.40
2022-08-17T17:29:10.378Z,3.20
2022-08-17T17:31:42.326Z,3.55
2022-08-17T17:34:11.745Z,3.20
2022-08-17T17:36:45.782Z,3.70
2022-08-17T17:39:33.334Z,3.50
2022-08-17T17:42:03.469Z,4.25
2022-08-17T17:44:35.628Z,3.40
2022-08-17T17:47:04.296Z,3.50
2022-08-17T17:49:36.093Z,4.00
2022-08-17T17:52:21.689Z,3.42
2022-08-17T17:55:03.423Z,3.70
2022-08-17T17:57:44.294Z,3.35
2022-08-17T18:02:51.485Z,4.18
2022-08-17T18:05:22.823Z,4.40
2022-08-17T18:08:11.801Z,4.57
2022-08-17T18:10:49.070Z,4.32
2022-08-17T18:13:27.665Z,3.95
2022-08-17T18:16:00.736Z,4.28
2022-08-17T18:18:38.016Z,4.10
2022-08-17T18:21:31.798Z,4.32
2022-08-17T18:24:00.281Z,4.47
2022-08-17T18:26:33.353Z,4.40
2022-08-17T18:29:01.491Z,4.55
2022-08-17T18:31:28.810Z,4.55
2022-08-17T18:34:36.117Z,4.13
2022-08-17T18:37:04.895Z,4.60
2022-08-17T18:39:32.281Z,4.57
2022-08-17T18:42:00.853Z,4.43
2022-08-17T18:44:29.807Z,4.65
2022-08-17T18:47:16.773Z,4.07
2022-08-17T18:49:45.562Z,4.50
2022-08-17T18:52:12.798Z,5.43
2022-08-17T18:54:40.196Z,4.18
2022-08-17T18:57:08.027Z,4.35
2022-08-17T18:59:45.659Z,3.92
2022-08-17T19:02:20.673Z,4.72
2022-08-17T19:05:10.464Z,3.92
2022-08-17T19:07:39.947Z,4.47
2022-08-17T19:10:28.910Z,4.40
2022-08-17T19:13:00.895Z,4.13
2022-08-17T19:15:35.572Z,4.40
2022-08-17T19:18:15.143Z,4.32
2022-08-17T19:20:45.460Z,4.33
2022-08-17T19:23:23.967Z,4.30
2022-08-17T19:25:52.850Z,4.85
2022-08-17T19:28:22.254Z,4.60
2022-08-17T19:30:51.188Z,5.40
2022-08-17T19:33:19.498Z,4.93
2022-08-17T19:35:52.895Z,4.82
2022-08-17T19:38:27.947Z,4.95
2022-08-17T19:40:55.279Z,4.55
2022-08-17T19:43:31.697Z,5.30
2022-08-17T19:45:59.481Z,4.82
2022-08-17T19:48:35.730Z,5.78
2022-08-17T19:51:12.111Z,5.55
2022-08-17T19:54:04.312Z,5.95
2022-08-17T19:56:36.569Z,5.32
2022-08-17T19:59:16.502Z,5.28
2022-08-17T20:01:47.119Z,6.30
2022-08-17T20:04:19.566Z,5.45
2022-08-17T20:06:52.962Z,5.60
2022-08-17T20:09:21.970Z,5.25
2022-08-17T20:11:54.377Z,5.47
2022-08-17T20:14:24.502Z,6.18
2022-08-17T20:16:52.067Z,5.37
2022-08-17T20:19:42.642Z,5.47
2022-08-17T20:22:52.266Z,5.95
2022-08-17T20:25:31.759Z,5.43
2022-08-17T20:28:05.844Z,5.72
2022-08-17T20:30:37.435Z,5.85
2022-08-17T20:35:37.424Z,5.53
2022-08-17T20:38:06.681Z,6.18
2022-08-17T20:40:33.992Z,6.07
2022-08-17T20:43:21.250Z,5.93
2022-08-17T20:45:55.782Z,6.03
2022-08-17T20:48:38.014Z,5.35
2022-08-17T20:51:29.654Z,5.57
2022-08-17T20:53:58.839Z,5.40
2022-08-17T20:57:01.538Z,5.78
2022-08-17T20:59:33.456Z,6.18
2022-08-17T21:02:12.450Z,5.53
2022-08-17T21:04:54.946Z,5.78
2022-08-17T21:07:33.110Z,5.00
2022-08-17T21:10:14.060Z,5.40
2022-08-17T21:12:42.001Z,5.00
2022-08-17T21:15:28.624Z,5.55
2022-08-17T21:18:03.594Z,4.55
2022-08-17T21:20:45.999Z,4.75
2022-08-17T21:23:24.255Z,5.20
2022-08-17T21:25:57.346Z,5.05
2022-08-17T21:28:36.913Z,6.43
2022-08-17T21:31:33.220Z,5.30
2022-08-17T21:34:17.207Z,5.60
2022-08-17T21:36:45.424Z,7.22
2022-08-17T21:39:14.737Z,5.30
2022-08-17T21:41:47.838Z,5.00
2022-08-17T21:44:18.235Z,5.32
2022-08-17T21:46:47.355Z,5.75
2022-08-17T21:49:16.884Z,5.30
2022-08-17T21:52:04.386Z,5.38
2022-08-17T21:54:35.561Z,5.65
2022-08-17T21:57:04.871Z,5.60
2022-08-17T21:59:38.291Z,5.45
2022-08-17T22:02:07.118Z,5.35
2022-08-17T22:04:36.211Z,4.82
2022-08-17T22:07:05.912Z,5.68
2022-08-17T22:09:35.761Z,5.30
2022-08-17T22:12:06.315Z,5.03
2022-08-17T22:14:52.090Z,5.00
2022-08-17T22:17:21.167Z,4.90
2022-08-17T22:19:57.595Z,5.38
2022-08-17T22:22:27.924Z,5.80
2022-08-17T22:24:57.570Z,5.65
2022-08-17T22:27:45.866Z,5.13
2022-08-17T22:30:32.089Z,12.50
2022-08-17T22:32:59.847Z,5.90
2022-08-17T22:35:43.971Z,7.15
2022-08-17T22:38:20.416Z,6.03
2022-08-17T22:40:52.040Z,5.72
2022-08-17T22:43:25.878Z,6.07
2022-08-17T22:45:54.933Z,5.68
2022-08-17T22:48:27.367Z,5.57
2022-08-17T22:51:04.507Z,5.93
2022-08-17T22:54:05.114Z,5.97
2022-08-17T22:56:51.179Z,5.75
2022-08-17T22:59:57.794Z,5.93
2022-08-17T23:02:35.780Z,5.47
2022-08-17T23:05:17.647Z,5.43
2022-08-17T23:07:46.015Z,6.18
2022-08-17T23:10:13.880Z,5.90
2022-08-17T23:12:41.497Z,5.45
2022-08-17T23:15:14.445Z,5.82
2022-08-17T23:17:42.201Z,5.75
2022-08-17T23:20:12.594Z,5.85
2022-08-17T23:22:52.049Z,5.05
2022-08-17T23:25:25.173Z,5.93
2022-08-17T23:27:52.696Z,5.82
2022-08-17T23:30:20.218Z,5.38
2022-08-17T23:32:53.422Z,5.93
2022-08-17T23:35:39.665Z,5.60
2022-08-17T23:38:09.214Z,5.63
2022-08-17T23:40:37.812Z,5.90
2022-08-17T23:43:23.373Z,6.25
2022-08-17T23:45:53.490Z,5.78
2022-08-17T23:48:36.224Z,5.65
2022-08-17T23:51:06.012Z,5.63
2022-08-17T23:53:34.729Z,5.97
2022-08-17T23:56:09.225Z,6.47
2022-08-17T23:58:38.656Z,6.47
